sensor_id;sensor_type;location;lat;lon;timestamp;pressure;altitude;pressure_sealevel;temperature;humidity
48892;BME280;50130;52.150;5.236;2023-01-19T00:00:41;99775.0;;;3.49;99.43
48892;BME280;50130;52.150;5.236;2023-01-19T00:02:19;99775.0;;;3.54;99.46
48892;BME280;50130;52.150;5.236;2023-01-19T00:03:56;99789.0;;;3.7;99.02
48892;BME280;50130;52.150;5.236;2023-01-19T00:07:10;99789.0;;;3.82;98.39
48892;BME280;50130;52.150;5.236;2023-01-19T00:08:49;99786.0;;;3.66;98.87
48892;BME280;50130;52.150;5.236;2023-01-19T00:10:25;99782.0;;;3.39;98.59
48892;BME280;50130;52.150;5.236;2023-01-19T00:12:01;99798.0;;;3.35;98.36
48892;BME280;50130;52.150;5.236;2023-01-19T00:15:14;99771.0;;;3.25;97.56
48892;BME280;50130;52.150;5.236;2023-01-19T00:16:51;99798.0;;;3.18;97.9
48892;BME280;50130;52.150;5.236;2023-01-19T00:18:28;99789.0;;;3.3;97.11
48892;BME280;50130;52.150;5.236;2023-01-19T00:21:42;99784.0;;;3.17;97.61
48892;BME280;50130;52.150;5.236;2023-01-19T00:23:19;99780.0;;;3.09;97.92
48892;BME280;50130;52.150;5.236;2023-01-19T00:24:55;99781.0;;;3.11;98.06
48892;BME280;50130;52.150;5.236;2023-01-19T00:28:08;99780.0;;;3.11;98.41
48892;BME280;50130;52.150;5.236;2023-01-19T00:29:45;99784.0;;;3.12;98.37
48892;BME280;50130;52.150;5.236;2023-01-19T00:31:21;99789.0;;;3.26;98.18
48892;BME280;50130;52.150;5.236;2023-01-19T00:32:57;99780.0;;;2.96;98.59
48892;BME280;50130;52.150;5.236;2023-01-19T00:36:24;99762.0;;;3.13;98.86
48892;BME280;50130;52.150;5.236;2023-01-19T00:38:00;99771.0;;;3.18;98.84
48892;BME280;50130;52.150;5.236;2023-01-19T00:39:37;99768.0;;;3.31;98.77
48892;BME280;50130;52.150;5.236;2023-01-19T00:42:51;99765.0;;;3.46;98.6
48892;BME280;50130;52.150;5.236;2023-01-19T00:44:28;99766.0;;;3.41;98.52
48892;BME280;50130;52.150;5.236;2023-01-19T00:46:04;99771.0;;;3.39;98.35
48892;BME280;50130;52.150;5.236;2023-01-19T00:47:41;99761.0;;;3.28;99.02
48892;BME280;50130;52.150;5.236;2023-01-19T00:50:53;99765.0;;;3.3;99.19
48892;BME280;50130;52.150;5.236;2023-01-19T00:52:30;99767.0;;;3.31;99.12
48892;BME280;50130;52.150;5.236;2023-01-19T00:54:09;99770.0;;;3.42;99.56
48892;BME280;50130;52.150;5.236;2023-01-19T00:57:21;99769.0;;;3.34;98.64
48892;BME280;50130;52.150;5.236;2023-01-19T00:58:57;99771.0;;;3.34;99.35
48892;BME280;50130;52.150;5.236;2023-01-19T01:00:34;99768.0;;;3.3;99.64
48892;BME280;50130;52.150;5.236;2023-01-19T01:02:10;99768.0;;;3.33;99.64
48892;BME280;50130;52.150;5.236;2023-01-19T01:05:24;99770.0;;;3.39;99.67
48892;BME280;50130;52.150;5.236;2023-01-19T01:07:00;99770.0;;;3.39;99.26
48892;BME280;50130;52.150;5.236;2023-01-19T01:08:36;99772.0;;;3.51;99.83
48892;BME280;50130;52.150;5.236;2023-01-19T01:11:51;99774.0;;;3.42;100.0
48892;BME280;50130;52.150;5.236;2023-01-19T01:13:28;99769.0;;;3.55;100.0
48892;BME280;50130;52.150;5.236;2023-01-19T01:15:05;99770.0;;;3.64;100.0
48892;BME280;50130;52.150;5.236;2023-01-19T01:18:20;99763.0;;;3.64;100.0
48892;BME280;50130;52.150;5.236;2023-01-19T01:19:57;99769.0;;;3.67;100.0
48892;BME280;50130;52.150;5.236;2023-01-19T01:21:34;99774.0;;;3.72;100.0
48892;BME280;50130;52.150;5.236;2023-01-19T01:23:11;99771.0;;;3.7;99.89
48892;BME280;50130;52.150;5.236;2023-01-19T01:26:24;99775.0;;;3.76;100.0
48892;BME280;50130;52.150;5.236;2023-01-19T01:28:02;99775.0;;;3.68;100.0
48892;BME280;50130;52.150;5.236;2023-01-19T01:29:45;99780.0;;;3.82;99.79
48892;BME280;50130;52.150;5.236;2023-01-19T01:33:00;99780.0;;;3.83;99.93
48892;BME280;50130;52.150;5.236;2023-01-19T01:34:36;99778.0;;;3.75;100.0
48892;BME280;50130;52.150;5.236;2023-01-19T01:36:12;99775.0;;;3.83;100.0
48892;BME280;50130;52.150;5.236;2023-01-19T01:37:48;99775.0;;;3.92;100.0
48892;BME280;50130;52.150;5.236;2023-01-19T01:41:02;99771.0;;;4.03;99.98
48892;BME280;50130;52.150;5.236;2023-01-19T01:42:40;99773.0;;;4.01;100.0
48892;BME280;50130;52.150;5.236;2023-01-19T01:44:43;99772.0;;;4.03;100.0
48892;BME280;50130;52.150;5.236;2023-01-19T01:46:21;99777.0;;;4.07;100.0
48892;BME280;50130;52.150;5.236;2023-01-19T01:49:40;99780.0;;;4.17;100.0
48892;BME280;50130;52.150;5.236;2023-01-19T01:51:27;99774.0;;;4.18;99.75
48892;BME280;50130;52.150;5.236;2023-01-19T01:53:11;99784.0;;;4.12;100.0
48892;BME280;50130;52.150;5.236;2023-01-19T01:54:50;99786.0;;;4.07;100.0
48892;BME280;50130;52.150;5.236;2023-01-19T01:58:11;99792.0;;;4.07;100.0
48892;BME280;50130;52.150;5.236;2023-01-19T01:59:49;99791.0;;;4.22;100.0
48892;BME280;50130;52.150;5.236;2023-01-19T02:04:19;99797.0;;;4.32;100.0
48892;BME280;50130;52.150;5.236;2023-01-19T02:05:59;99797.0;;;4.37;100.0
48892;BME280;50130;52.150;5.236;2023-01-19T02:13:27;99811.0;;;4.55;100.0
48892;BME280;50130;52.150;5.236;2023-01-19T02:16:41;99815.0;;;4.67;100.0
48892;BME280;50130;52.150;5.236;2023-01-19T02:18:18;99812.0;;;4.61;100.0
48892;BME280;50130;52.150;5.236;2023-01-19T02:19:57;99818.0;;;4.82;100.0
48892;BME280;50130;52.150;5.236;2023-01-19T02:23:29;99818.0;;;4.7;100.0
48892;BME280;50130;52.150;5.236;2023-01-19T02:25:12;99810.0;;;4.57;100.0
48892;BME280;50130;52.150;5.236;2023-01-19T02:26:50;99811.0;;;4.63;99.8
48892;BME280;50130;52.150;5.236;2023-01-19T02:28:26;99822.0;;;4.58;99.74
48892;BME280;50130;52.150;5.236;2023-01-19T02:30:05;99828.0;;;4.54;99.89
48892;BME280;50130;52.150;5.236;2023-01-19T02:33:20;99837.0;;;4.51;99.85
48892;BME280;50130;52.150;5.236;2023-01-19T02:34:57;99841.0;;;4.59;99.72
48892;BME280;50130;52.150;5.236;2023-01-19T02:39:55;99857.0;;;4.62;99.36
48892;BME280;50130;52.150;5.236;2023-01-19T02:41:37;99857.0;;;4.63;98.98
48892;BME280;50130;52.150;5.236;2023-01-19T02:43:18;99855.0;;;4.57;99.3
48892;BME280;50130;52.150;5.236;2023-01-19T02:44:55;99863.0;;;4.59;99.63
48892;BME280;50130;52.150;5.236;2023-01-19T02:48:08;99869.0;;;4.59;99.4
48892;BME280;50130;52.150;5.236;2023-01-19T02:49:44;99872.0;;;4.53;99.55
48892;BME280;50130;52.150;5.236;2023-01-19T02:51:29;99880.0;;;4.64;99.71
48892;BME280;50130;52.150;5.236;2023-01-19T02:53:15;99876.0;;;4.82;99.38
48892;BME280;50130;52.150;5.236;2023-01-19T02:57:04;99876.0;;;4.8;99.2
48892;BME280;50130;52.150;5.236;2023-01-19T02:59:52;99874.0;;;4.66;98.94
48892;BME280;50130;52.150;5.236;2023-01-19T03:01:43;99880.0;;;4.61;99.25
48892;BME280;50130;52.150;5.236;2023-01-19T03:05:20;99871.0;;;4.63;99.15
48892;BME280;50130;52.150;5.236;2023-01-19T03:07:07;99862.0;;;4.64;99.19
48892;BME280;50130;52.150;5.236;2023-01-19T03:08:50;99858.0;;;4.78;97.75
48892;BME280;50130;52.150;5.236;2023-01-19T03:10:36;99855.0;;;4.64;97.9
48892;BME280;50130;52.150;5.236;2023-01-19T03:12:23;99857.0;;;4.71;97.94
48892;BME280;50130;52.150;5.236;2023-01-19T03:14:10;99846.0;;;4.75;97.45
48892;BME280;50130;52.150;5.236;2023-01-19T03:17:33;99873.0;;;4.75;96.94
48892;BME280;50130;52.150;5.236;2023-01-19T03:19:14;99866.0;;;4.72;97.37
48892;BME280;50130;52.150;5.236;2023-01-19T03:20:54;99881.0;;;4.59;97.9
48892;BME280;50130;52.150;5.236;2023-01-19T03:22:36;99881.0;;;4.62;98.01
48892;BME280;50130;52.150;5.236;2023-01-19T03:25:54;99887.0;;;4.72;98.12
48892;BME280;50130;52.150;5.236;2023-01-19T03:27:35;99886.0;;;4.66;98.14
48892;BME280;50130;52.150;5.236;2023-01-19T03:29:14;99882.0;;;4.7;98.21
48892;BME280;50130;52.150;5.236;2023-01-19T03:30:57;99871.0;;;4.63;98.07
48892;BME280;50130;52.150;5.236;2023-01-19T03:34:23;99877.0;;;4.68;98.31
48892;BME280;50130;52.150;5.236;2023-01-19T03:36:06;99875.0;;;4.61;98.6
48892;BME280;50130;52.150;5.236;2023-01-19T03:37:46;99877.0;;;4.58;98.43
48892;BME280;50130;52.150;5.236;2023-01-19T03:39:26;99881.0;;;4.45;98.8
48892;BME280;50130;52.150;5.236;2023-01-19T03:42:47;99890.0;;;4.39;99.25
48892;BME280;50130;52.150;5.236;2023-01-19T03:44:27;99894.0;;;4.42;98.99
48892;BME280;50130;52.150;5.236;2023-01-19T03:46:06;99884.0;;;4.45;98.73
48892;BME280;50130;52.150;5.236;2023-01-19T03:47:44;99893.0;;;4.57;98.02
48892;BME280;50130;52.150;5.236;2023-01-19T03:50:56;99914.0;;;4.57;97.92
48892;BME280;50130;52.150;5.236;2023-01-19T03:52:34;99909.0;;;4.51;97.91
48892;BME280;50130;52.150;5.236;2023-01-19T03:54:10;99913.0;;;4.39;98.32
48892;BME280;50130;52.150;5.236;2023-01-19T03:57:25;99917.0;;;4.37;98.45
48892;BME280;50130;52.150;5.236;2023-01-19T03:59:04;99910.0;;;4.33;98.49
48892;BME280;50130;52.150;5.236;2023-01-19T04:00:40;99913.0;;;4.34;98.53
48892;BME280;50130;52.150;5.236;2023-01-19T04:02:16;99910.0;;;4.32;98.47
48892;BME280;50130;52.150;5.236;2023-01-19T04:05:29;99915.0;;;4.2;98.95
48892;BME280;50130;52.150;5.236;2023-01-19T04:07:07;99911.0;;;4.2;98.88
48892;BME280;50130;52.150;5.236;2023-01-19T04:08:46;99910.0;;;4.2;98.92
48892;BME280;50130;52.150;5.236;2023-01-19T04:12:01;99912.0;;;4.24;98.92
48892;BME280;50130;52.150;5.236;2023-01-19T04:13:37;99909.0;;;4.18;98.64
48892;BME280;50130;52.150;5.236;2023-01-19T04:15:14;99907.0;;;4.21;98.44
48892;BME280;50130;52.150;5.236;2023-01-19T04:16:51;99916.0;;;4.13;98.39
48892;BME280;50130;52.150;5.236;2023-01-19T04:20:05;99911.0;;;4.14;98.32
48892;BME280;50130;52.150;5.236;2023-01-19T04:21:42;99910.0;;;4.18;98.1
48892;BME280;50130;52.150;5.236;2023-01-19T04:23:18;99913.0;;;4.17;98.34
48892;BME280;50130;52.150;5.236;2023-01-19T04:26:30;99919.0;;;4.01;98.32
48892;BME280;50130;52.150;5.236;2023-01-19T04:28:07;99914.0;;;4.08;98.01
48892;BME280;50130;52.150;5.236;2023-01-19T04:29:43;99922.0;;;4.12;97.48
48892;BME280;50130;52.150;5.236;2023-01-19T04:32:57;99923.0;;;4.12;97.88
48892;BME280;50130;52.150;5.236;2023-01-19T04:34:34;99924.0;;;4.14;97.3
48892;BME280;50130;52.150;5.236;2023-01-19T04:36:10;99926.0;;;3.94;98.06
48892;BME280;50130;52.150;5.236;2023-01-19T04:37:46;99930.0;;;3.88;98.63
48892;BME280;50130;52.150;5.236;2023-01-19T04:40:59;99926.0;;;3.92;98.03
48892;BME280;50130;52.150;5.236;2023-01-19T04:42:35;99924.0;;;3.94;98.18
48892;BME280;50130;52.150;5.236;2023-01-19T04:44:11;99931.0;;;3.91;98.39
48892;BME280;50130;52.150;5.236;2023-01-19T04:47:24;99930.0;;;4.09;97.94
48892;BME280;50130;52.150;5.236;2023-01-19T04:49:00;99931.0;;;4.08;97.82
48892;BME280;50130;52.150;5.236;2023-01-19T04:50:37;99933.0;;;3.95;98.02
48892;BME280;50130;52.150;5.236;2023-01-19T04:53:50;99931.0;;;3.91;98.33
48892;BME280;50130;52.150;5.236;2023-01-19T04:55:26;99936.0;;;3.83;98.81
48892;BME280;50130;52.150;5.236;2023-01-19T04:57:03;99945.0;;;3.88;99.12
48892;BME280;50130;52.150;5.236;2023-01-19T04:58:39;99949.0;;;3.83;99.14
48892;BME280;50130;52.150;5.236;2023-01-19T05:01:55;99964.0;;;3.92;99.13
48892;BME280;50130;52.150;5.236;2023-01-19T05:03:32;99965.0;;;4.14;98.53
48892;BME280;50130;52.150;5.236;2023-01-19T05:05:08;99967.0;;;3.9;99.25
48892;BME280;50130;52.150;5.236;2023-01-19T05:08:21;99961.0;;;3.96;99.69
48892;BME280;50130;52.150;5.236;2023-01-19T05:09:57;99958.0;;;4.01;99.78
48892;BME280;50130;52.150;5.236;2023-01-19T05:11:33;99967.0;;;4.08;99.9
48892;BME280;50130;52.150;5.236;2023-01-19T05:14:45;99971.0;;;4.07;100.0
48892;BME280;50130;52.150;5.236;2023-01-19T05:16:22;99971.0;;;4.16;100.0
48892;BME280;50130;52.150;5.236;2023-01-19T05:17:58;99975.0;;;4.12;99.99
48892;BME280;50130;52.150;5.236;2023-01-19T05:19:34;99972.0;;;4.25;99.83
48892;BME280;50130;52.150;5.236;2023-01-19T05:22:48;99972.0;;;4.3;99.58
48892;BME280;50130;52.150;5.236;2023-01-19T05:24:24;99977.0;;;4.37;99.22
48892;BME280;50130;52.150;5.236;2023-01-19T05:26:01;99970.0;;;4.37;99.06
48892;BME280;50130;52.150;5.236;2023-01-19T05:29:15;99975.0;;;4.39;98.68
48892;BME280;50130;52.150;5.236;2023-01-19T05:30:51;99976.0;;;4.28;99.16
48892;BME280;50130;52.150;5.236;2023-01-19T05:32:28;99971.0;;;4.26;99.28
48892;BME280;50130;52.150;5.236;2023-01-19T05:35:40;99975.0;;;4.18;99.61
48892;BME280;50130;52.150;5.236;2023-01-19T05:37:16;99974.0;;;4.32;99.2
48892;BME280;50130;52.150;5.236;2023-01-19T05:38:53;99975.0;;;4.26;99.14
48892;BME280;50130;52.150;5.236;2023-01-19T05:40:29;99977.0;;;4.24;99.21
48892;BME280;50130;52.150;5.236;2023-01-19T05:43:41;99973.0;;;4.13;99.4
48892;BME280;50130;52.150;5.236;2023-01-19T05:45:17;99984.0;;;4.09;99.65
48892;BME280;50130;52.150;5.236;2023-01-19T05:46:53;99978.0;;;4.12;99.59
48892;BME280;50130;52.150;5.236;2023-01-19T05:50:06;99984.0;;;4.16;99.27
48892;BME280;50130;52.150;5.236;2023-01-19T05:51:44;99987.0;;;4.05;99.54
48892;BME280;50130;52.150;5.236;2023-01-19T05:53:20;99992.0;;;3.95;99.9
48892;BME280;50130;52.150;5.236;2023-01-19T05:56:33;99991.0;;;3.97;99.74
48892;BME280;50130;52.150;5.236;2023-01-19T05:58:09;99996.0;;;3.92;99.86
48892;BME280;50130;52.150;5.236;2023-01-19T05:59:45;99999.0;;;3.89;99.99
48892;BME280;50130;52.150;5.236;2023-01-19T06:01:22;99995.0;;;3.85;99.91
48892;BME280;50130;52.150;5.236;2023-01-19T06:04:36;99999.0;;;3.76;99.85
48892;BME280;50130;52.150;5.236;2023-01-19T06:06:14;99999.0;;;3.75;99.74
48892;BME280;50130;52.150;5.236;2023-01-19T06:07:50;100007.0;;;3.73;99.56
48892;BME280;50130;52.150;5.236;2023-01-19T06:11:04;100008.0;;;3.63;99.72
48892;BME280;50130;52.150;5.236;2023-01-19T06:12:40;100011.0;;;3.68;99.77
48892;BME280;50130;52.150;5.236;2023-01-19T06:14:18;100015.0;;;3.67;99.66
48892;BME280;50130;52.150;5.236;2023-01-19T06:17:33;100018.0;;;3.67;99.46
48892;BME280;50130;52.150;5.236;2023-01-19T06:19:09;100018.0;;;3.61;99.7
48892;BME280;50130;52.150;5.236;2023-01-19T06:20:45;100030.0;;;3.58;99.73
48892;BME280;50130;52.150;5.236;2023-01-19T06:22:22;100024.0;;;3.52;99.46
48892;BME280;50130;52.150;5.236;2023-01-19T06:25:34;100027.0;;;3.47;99.7
48892;BME280;50130;52.150;5.236;2023-01-19T06:27:10;100034.0;;;3.41;99.94
48892;BME280;50130;52.150;5.236;2023-01-19T06:28:49;100033.0;;;3.38;99.86
48892;BME280;50130;52.150;5.236;2023-01-19T06:32:03;100035.0;;;3.35;99.97
48892;BME280;50130;52.150;5.236;2023-01-19T06:33:40;100039.0;;;3.32;99.75
48892;BME280;50130;52.150;5.236;2023-01-19T06:35:17;100038.0;;;3.26;100.0
48892;BME280;50130;52.150;5.236;2023-01-19T06:36:53;100045.0;;;3.25;100.0
48892;BME280;50130;52.150;5.236;2023-01-19T06:40:07;100043.0;;;3.3;99.86
48892;BME280;50130;52.150;5.236;2023-01-19T06:41:44;100045.0;;;3.24;99.81
48892;BME280;50130;52.150;5.236;2023-01-19T06:43:21;100053.0;;;3.19;99.78
48892;BME280;50130;52.150;5.236;2023-01-19T06:46:34;100055.0;;;3.23;99.65
48892;BME280;50130;52.150;5.236;2023-01-19T06:48:10;100058.0;;;3.14;99.47
48892;BME280;50130;52.150;5.236;2023-01-19T06:49:47;100058.0;;;3.11;99.52
48892;BME280;50130;52.150;5.236;2023-01-19T06:53:01;100060.0;;;3.18;99.39
48892;BME280;50130;52.150;5.236;2023-01-19T06:54:37;100064.0;;;3.14;99.36
48892;BME280;50130;52.150;5.236;2023-01-19T06:56:14;100060.0;;;3.08;99.49
48892;BME280;50130;52.150;5.236;2023-01-19T06:57:55;100064.0;;;3.07;99.95
48892;BME280;50130;52.150;5.236;2023-01-19T07:01:08;100071.0;;;3.05;100.0
48892;BME280;50130;52.150;5.236;2023-01-19T07:02:45;100075.0;;;3.07;99.95
48892;BME280;50130;52.150;5.236;2023-01-19T07:04:21;100078.0;;;3.04;100.0
48892;BME280;50130;52.150;5.236;2023-01-19T07:07:39;100080.0;;;3.07;100.0
48892;BME280;50130;52.150;5.236;2023-01-19T07:09:16;100084.0;;;3.08;99.81
48892;BME280;50130;52.150;5.236;2023-01-19T07:10:58;100092.0;;;3.02;99.62
48892;BME280;50130;52.150;5.236;2023-01-19T07:12:34;100090.0;;;3.04;99.53
48892;BME280;50130;52.150;5.236;2023-01-19T07:15:47;100093.0;;;2.96;99.69
48892;BME280;50130;52.150;5.236;2023-01-19T07:17:23;100095.0;;;2.94;99.8
48892;BME280;50130;52.150;5.236;2023-01-19T07:18:59;100098.0;;;2.96;99.82
48892;BME280;50130;52.150;5.236;2023-01-19T07:22:13;100103.0;;;2.94;99.69
48892;BME280;50130;52.150;5.236;2023-01-19T07:23:50;100105.0;;;2.96;99.74
48892;BME280;50130;52.150;5.236;2023-01-19T07:25:27;100109.0;;;2.93;99.7
48892;BME280;50130;52.150;5.236;2023-01-19T07:28:40;100114.0;;;2.94;99.65
48892;BME280;50130;52.150;5.236;2023-01-19T07:30:17;100118.0;;;2.94;99.62
48892;BME280;50130;52.150;5.236;2023-01-19T07:31:53;100125.0;;;2.95;99.45
48892;BME280;50130;52.150;5.236;2023-01-19T07:33:30;100126.0;;;3.01;99.03
48892;BME280;50130;52.150;5.236;2023-01-19T07:36:44;100126.0;;;2.96;99.25
48892;BME280;50130;52.150;5.236;2023-01-19T07:38:21;100127.0;;;2.88;99.47
48892;BME280;50130;52.150;5.236;2023-01-19T07:39:57;100137.0;;;2.89;99.15
48892;BME280;50130;52.150;5.236;2023-01-19T07:43:09;100140.0;;;2.83;99.37
48892;BME280;50130;52.150;5.236;2023-01-19T07:44:45;100139.0;;;2.77;99.42
48892;BME280;50130;52.150;5.236;2023-01-19T07:46:22;100141.0;;;2.77;99.64
48892;BME280;50130;52.150;5.236;2023-01-19T07:49:37;100145.0;;;2.79;99.03
48892;BME280;50130;52.150;5.236;2023-01-19T07:51:17;100151.0;;;2.76;99.19
48892;BME280;50130;52.150;5.236;2023-01-19T07:52:54;100158.0;;;2.76;99.2
48892;BME280;50130;52.150;5.236;2023-01-19T07:54:31;100164.0;;;2.79;99.16
48892;BME280;50130;52.150;5.236;2023-01-19T07:57:47;100170.0;;;2.82;98.99
48892;BME280;50130;52.150;5.236;2023-01-19T07:59:24;100171.0;;;2.81;99.1
48892;BME280;50130;52.150;5.236;2023-01-19T08:01:04;100168.0;;;2.79;98.8
48892;BME280;50130;52.150;5.236;2023-01-19T08:02:41;100172.0;;;2.75;98.95
48892;BME280;50130;52.150;5.236;2023-01-19T08:05:56;100174.0;;;2.73;98.88
48892;BME280;50130;52.150;5.236;2023-01-19T08:07:32;100174.0;;;2.67;98.91
48892;BME280;50130;52.150;5.236;2023-01-19T08:12:25;100180.0;;;2.57;99.01
48892;BME280;50130;52.150;5.236;2023-01-19T08:14:01;100188.0;;;2.54;98.94
48892;BME280;50130;52.150;5.236;2023-01-19T08:15:38;100187.0;;;2.48;99.26
48892;BME280;50130;52.150;5.236;2023-01-19T08:18:50;100193.0;;;2.59;99.31
48892;BME280;50130;52.150;5.236;2023-01-19T08:20:28;100198.0;;;2.54;99.17
48892;BME280;50130;52.150;5.236;2023-01-19T08:22:05;100197.0;;;2.52;99.05
48892;BME280;50130;52.150;5.236;2023-01-19T08:23:41;100205.0;;;2.52;99.26
48892;BME280;50130;52.150;5.236;2023-01-19T08:26:57;100207.0;;;2.46;99.22
48892;BME280;50130;52.150;5.236;2023-01-19T08:28:35;100209.0;;;2.46;99.28
48892;BME280;50130;52.150;5.236;2023-01-19T08:30:12;100218.0;;;2.54;99.05
48892;BME280;50130;52.150;5.236;2023-01-19T08:33:24;100224.0;;;2.52;99.26
48892;BME280;50130;52.150;5.236;2023-01-19T08:35:01;100226.0;;;2.59;99.7
48892;BME280;50130;52.150;5.236;2023-01-19T08:36:38;100224.0;;;2.61;100.0
48892;BME280;50130;52.150;5.236;2023-01-19T08:38:14;100234.0;;;2.7;100.0
48892;BME280;50130;52.150;5.236;2023-01-19T08:41:29;100236.0;;;2.86;100.0
48892;BME280;50130;52.150;5.236;2023-01-19T08:43:09;100237.0;;;2.91;100.0
48892;BME280;50130;52.150;5.236;2023-01-19T08:44:47;100238.0;;;2.9;100.0
48892;BME280;50130;52.150;5.236;2023-01-19T08:47:59;100238.0;;;2.95;100.0
48892;BME280;50130;52.150;5.236;2023-01-19T08:49:36;100243.0;;;3.18;100.0
48892;BME280;50130;52.150;5.236;2023-01-19T08:51:12;100245.0;;;3.26;100.0
48892;BME280;50130;52.150;5.236;2023-01-19T08:52:51;100252.0;;;3.4;100.0
48892;BME280;50130;52.150;5.236;2023-01-19T08:56:11;100265.0;;;3.48;100.0
48892;BME280;50130;52.150;5.236;2023-01-19T08:57:50;100255.0;;;3.68;100.0
48892;BME280;50130;52.150;5.236;2023-01-19T08:59:26;100252.0;;;3.83;100.0
48892;BME280;50130;52.150;5.236;2023-01-19T09:02:40;100252.0;;;3.85;100.0
48892;BME280;50130;52.150;5.236;2023-01-19T09:04:16;100248.0;;;4.13;99.88
48892;BME280;50130;52.150;5.236;2023-01-19T09:05:52;100252.0;;;4.16;99.1
48892;BME280;50130;52.150;5.236;2023-01-19T09:09:05;100246.0;;;4.25;98.95
48892;BME280;50130;52.150;5.236;2023-01-19T09:10:44;100252.0;;;4.24;98.56
48892;BME280;50130;52.150;5.236;2023-01-19T09:12:22;100255.0;;;4.45;97.84
48892;BME280;50130;52.150;5.236;2023-01-19T09:13:58;100256.0;;;4.29;97.8
48892;BME280;50130;52.150;5.236;2023-01-19T09:17:13;100257.0;;;4.28;98.34
48892;BME280;50130;52.150;5.236;2023-01-19T09:18:49;100261.0;;;4.12;98.29
48892;BME280;50130;52.150;5.236;2023-01-19T09:20:25;100265.0;;;4.07;98.65
48892;BME280;50130;52.150;5.236;2023-01-19T09:23:38;100270.0;;;3.97;98.8
48892;BME280;50130;52.150;5.236;2023-01-19T09:25:14;100270.0;;;3.97;98.97
48892;BME280;50130;52.150;5.236;2023-01-19T09:26:50;100271.0;;;3.95;98.96
48892;BME280;50130;52.150;5.236;2023-01-19T09:28:27;100275.0;;;3.96;98.81
48892;BME280;50130;52.150;5.236;2023-01-19T09:31:43;100272.0;;;3.92;99.07
48892;BME280;50130;52.150;5.236;2023-01-19T09:33:19;100275.0;;;3.93;99.09
48892;BME280;50130;52.150;5.236;2023-01-19T09:34:56;100278.0;;;3.98;99.66
48892;BME280;50130;52.150;5.236;2023-01-19T09:38:12;100276.0;;;3.94;99.7
48892;BME280;50130;52.150;5.236;2023-01-19T09:39:48;100278.0;;;3.93;99.61
48892;BME280;50130;52.150;5.236;2023-01-19T09:41:25;100280.0;;;4.04;99.88
48892;BME280;50130;52.150;5.236;2023-01-19T09:44:49;100278.0;;;4.05;99.97
48892;BME280;50130;52.150;5.236;2023-01-19T09:46:30;100281.0;;;4.18;99.45
48892;BME280;50130;52.150;5.236;2023-01-19T09:48:25;100283.0;;;4.12;99.56
48892;BME280;50130;52.150;5.236;2023-01-19T09:50:11;100285.0;;;4.22;100.0
48892;BME280;50130;52.150;5.236;2023-01-19T09:51:51;100287.0;;;4.12;99.97
48892;BME280;50130;52.150;5.236;2023-01-19T09:55:26;100292.0;;;4.29;99.67
48892;BME280;50130;52.150;5.236;2023-01-19T09:57:04;100299.0;;;4.32;99.57
48892;BME280;50130;52.150;5.236;2023-01-19T09:58:46;100299.0;;;4.39;99.28
48892;BME280;50130;52.150;5.236;2023-01-19T10:00:24;100300.0;;;4.39;99.14
48892;BME280;50130;52.150;5.236;2023-01-19T10:02:11;100295.0;;;4.51;99.03
48892;BME280;50130;52.150;5.236;2023-01-19T10:05:57;100297.0;;;4.61;98.94
48892;BME280;50130;52.150;5.236;2023-01-19T10:07:49;100295.0;;;4.55;98.84
48892;BME280;50130;52.150;5.236;2023-01-19T10:09:34;100303.0;;;4.64;98.29
48892;BME280;50130;52.150;5.236;2023-01-19T10:11:19;100305.0;;;4.7;98.01
48892;BME280;50130;52.150;5.236;2023-01-19T10:13:16;100305.0;;;4.74;98.02
48892;BME280;50130;52.150;5.236;2023-01-19T10:15:16;100309.0;;;4.89;97.31
48892;BME280;50130;52.150;5.236;2023-01-19T10:17:08;100307.0;;;4.91;96.89
48892;BME280;50130;52.150;5.236;2023-01-19T10:18:57;100307.0;;;4.92;97.4
48892;BME280;50130;52.150;5.236;2023-01-19T10:22:19;100314.0;;;4.95;96.72
48892;BME280;50130;52.150;5.236;2023-01-19T10:24:03;100314.0;;;4.99;96.32
48892;BME280;50130;52.150;5.236;2023-01-19T10:25:42;100314.0;;;5.01;96.41
48892;BME280;50130;52.150;5.236;2023-01-19T10:27:23;100309.0;;;4.99;97.1
48892;BME280;50130;52.150;5.236;2023-01-19T10:30:43;100315.0;;;4.95;95.53
48892;BME280;50130;52.150;5.236;2023-01-19T10:32:24;100316.0;;;5.16;94.09
48892;BME280;50130;52.150;5.236;2023-01-19T10:34:06;100322.0;;;5.24;91.91
48892;BME280;50130;52.150;5.236;2023-01-19T10:35:47;100322.0;;;5.34;91.61
48892;BME280;50130;52.150;5.236;2023-01-19T10:39:12;100323.0;;;5.36;92.08
48892;BME280;50130;52.150;5.236;2023-01-19T10:40:55;100321.0;;;5.44;91.42
48892;BME280;50130;52.150;5.236;2023-01-19T10:42:32;100320.0;;;5.6;91.68
48892;BME280;50130;52.150;5.236;2023-01-19T10:44:22;100323.0;;;5.59;90.07
48892;BME280;50130;52.150;5.236;2023-01-19T10:45:58;100323.0;;;5.58;90.76
48892;BME280;50130;52.150;5.236;2023-01-19T10:49:23;100323.0;;;5.69;92.38
48892;BME280;50130;52.150;5.236;2023-01-19T10:51:02;100325.0;;;5.65;90.5
48892;BME280;50130;52.150;5.236;2023-01-19T10:52:40;100325.0;;;5.78;90.76
48892;BME280;50130;52.150;5.236;2023-01-19T10:54:18;100322.0;;;5.92;89.93
48892;BME280;50130;52.150;5.236;2023-01-19T10:59:30;100323.0;;;6.08;83.35
48892;BME280;50130;52.150;5.236;2023-01-19T11:01:14;100319.0;;;6.13;86.92
48892;BME280;50130;52.150;5.236;2023-01-19T11:02:52;100319.0;;;6.12;86.31
48892;BME280;50130;52.150;5.236;2023-01-19T11:06:19;100330.0;;;6.21;82.59
48892;BME280;50130;52.150;5.236;2023-01-19T11:07:56;100323.0;;;6.16;85.76
48892;BME280;50130;52.150;5.236;2023-01-19T11:09:33;100323.0;;;6.28;84.15
48892;BME280;50130;52.150;5.236;2023-01-19T11:11:11;100319.0;;;6.27;84.36
48892;BME280;50130;52.150;5.236;2023-01-19T11:14:36;100318.0;;;6.23;84.44
48892;BME280;50130;52.150;5.236;2023-01-19T11:16:18;100320.0;;;6.3;82.73
48892;BME280;50130;52.150;5.236;2023-01-19T11:18:02;100326.0;;;6.33;84.02
48892;BME280;50130;52.150;5.236;2023-01-19T11:19:40;100330.0;;;6.35;78.87
48892;BME280;50130;52.150;5.236;2023-01-19T11:23:14;100328.0;;;6.45;78.23
48892;BME280;50130;52.150;5.236;2023-01-19T11:24:58;100331.0;;;6.54;81.86
48892;BME280;50130;52.150;5.236;2023-01-19T11:26:39;100337.0;;;6.66;79.16
48892;BME280;50130;52.150;5.236;2023-01-19T11:28:19;100340.0;;;6.7;79.05
48892;BME280;50130;52.150;5.236;2023-01-19T11:30:05;100343.0;;;6.76;78.72
48892;BME280;50130;52.150;5.236;2023-01-19T11:33:24;100339.0;;;6.76;75.09
48892;BME280;50130;52.150;5.236;2023-01-19T11:35:28;100339.0;;;6.9;75.12